Terminal Aerodrome Forecast
Issued by NWS

Home | Current Version | Previous Version | Text Only | Print | Product List | Glossary On
Versions: 1 2 3 4 5 6 7 8 9 10 11 12 13 14 15
000
FTUS45 KTFX 231351 AAA
TAFLWT
TAF AMD
KLWT 231351Z 2314/2412 08007KT P6SM -SHRA SCT030 BKN050
     FM231700 08010KT P6SM -SHRA OVC020
     FM232100 08012KT P6SM VCSH SCT040 OVC070
     FM240100 06008KT P6SM OVC070
     FM240600 VRB04KT P6SM OVC050=

USA.gov is the U.S. government's official web portal to all federal, state and local government web resources and services.